sensor_id;sensor_type;location;lat;lon;timestamp;pressure;altitude;pressure_sealevel;temperature;humidity
70982;BME280;58640;51.320;9.456;2023-05-22T00:01:37;99146.88;;;17.63;75.19
70982;BME280;58640;51.320;9.456;2023-05-22T00:04:03;99146.66;;;17.82;73.91
70982;BME280;58640;51.320;9.456;2023-05-22T00:06:28;99143.31;;;17.62;74.71
70982;BME280;58640;51.320;9.456;2023-05-22T00:08:54;99148.03;;;17.55;74.86
70982;BME280;58640;51.320;9.456;2023-05-22T00:11:21;99146.81;;;17.51;75.86
70982;BME280;58640;51.320;9.456;2023-05-22T00:13:46;99142.94;;;17.59;75.10
70982;BME280;58640;51.320;9.456;2023-05-22T00:16:12;99144.47;;;17.55;74.97
70982;BME280;58640;51.320;9.456;2023-05-22T00:18:37;99146.81;;;17.51;74.96
70982;BME280;58640;51.320;9.456;2023-05-22T00:21:07;99141.53;;;17.56;75.04
70982;BME280;58640;51.320;9.456;2023-05-22T00:23:32;99145.50;;;17.53;74.78
70982;BME280;58640;51.320;9.456;2023-05-22T00:25:58;99137.56;;;17.52;74.85
70982;BME280;58640;51.320;9.456;2023-05-22T00:28:24;99143.28;;;17.44;75.42
70982;BME280;58640;51.320;9.456;2023-05-22T00:30:49;99133.94;;;17.40;75.26
70982;BME280;58640;51.320;9.456;2023-05-22T00:33:14;99137.13;;;17.37;75.64
70982;BME280;58640;51.320;9.456;2023-05-22T00:35:40;99137.56;;;17.34;75.78
70982;BME280;58640;51.320;9.456;2023-05-22T00:38:06;99132.59;;;17.31;76.10
70982;BME280;58640;51.320;9.456;2023-05-22T00:40:32;99130.44;;;17.33;75.79
70982;BME280;58640;51.320;9.456;2023-05-22T00:42:57;99133.78;;;17.35;76.04
70982;BME280;58640;51.320;9.456;2023-05-22T00:45:23;99130.91;;;17.30;76.51
70982;BME280;58640;51.320;9.456;2023-05-22T00:47:49;99129.56;;;17.39;75.75
70982;BME280;58640;51.320;9.456;2023-05-22T00:50:14;99128.72;;;17.38;75.61
70982;BME280;58640;51.320;9.456;2023-05-22T00:52:41;99134.25;;;17.32;75.70
70982;BME280;58640;51.320;9.456;2023-05-22T00:55:08;99127.88;;;17.38;75.93
70982;BME280;58640;51.320;9.456;2023-05-22T00:57:33;99137.13;;;17.37;75.86
70982;BME280;58640;51.320;9.456;2023-05-22T01:00:01;99131.91;;;17.35;75.68
70982;BME280;58640;51.320;9.456;2023-05-22T01:02:30;99137.56;;;17.34;75.63
70982;BME280;58640;51.320;9.456;2023-05-22T01:04:57;99134.84;;;17.34;75.64
70982;BME280;58640;51.320;9.456;2023-05-22T01:07:23;99135.53;;;17.29;75.87
70982;BME280;58640;51.320;9.456;2023-05-22T01:09:48;99143.91;;;17.28;75.69
70982;BME280;58640;51.320;9.456;2023-05-22T01:12:32;99132.44;;;17.26;76.22
70982;BME280;58640;51.320;9.456;2023-05-22T01:15:43;99137.88;;;17.26;76.47
70982;BME280;58640;51.320;9.456;2023-05-22T01:18:18;99140.88;;;17.36;75.90
70982;BME280;58640;51.320;9.456;2023-05-22T01:21:04;99130.00;;;17.36;75.86
70982;BME280;58640;51.320;9.456;2023-05-22T01:23:37;99136.72;;;17.33;75.73
70982;BME280;58640;51.320;9.456;2023-05-22T01:29:40;99135.00;;;17.39;75.70
70982;BME280;58640;51.320;9.456;2023-05-22T01:32:11;99132.59;;;17.31;75.87
70982;BME280;58640;51.320;9.456;2023-05-22T01:34:39;99131.81;;;17.24;76.04
70982;BME280;58640;51.320;9.456;2023-05-22T01:37:08;99126.84;;;17.21;76.47
70982;BME280;58640;51.320;9.456;2023-05-22T01:39:34;99131.88;;;17.17;76.72
70982;BME280;58640;51.320;9.456;2023-05-22T01:42:00;99131.50;;;17.14;77.06
70982;BME280;58640;51.320;9.456;2023-05-22T01:44:26;99118.13;;;17.12;76.79
70982;BME280;58640;51.320;9.456;2023-05-22T01:46:51;99122.09;;;17.16;76.52
70982;BME280;58640;51.320;9.456;2023-05-22T01:49:17;99120.34;;;17.22;76.72
70982;BME280;58640;51.320;9.456;2023-05-22T01:51:53;99114.31;;;17.20;76.25
70982;BME280;58640;51.320;9.456;2023-05-22T02:02:15;99115.78;;;16.98;77.77
70982;BME280;58640;51.320;9.456;2023-05-22T02:04:45;99116.56;;;17.05;77.34
70982;BME280;58640;51.320;9.456;2023-05-22T02:07:13;99115.56;;;17.17;77.20
70982;BME280;58640;51.320;9.456;2023-05-22T02:09:39;99113.59;;;17.06;77.33
70982;BME280;58640;51.320;9.456;2023-05-22T02:12:07;99112.03;;;16.99;77.62
70982;BME280;58640;51.320;9.456;2023-05-22T02:14:33;99108.41;;;17.05;77.67
70982;BME280;58640;51.320;9.456;2023-05-22T02:16:59;99107.09;;;17.07;77.34
70982;BME280;58640;51.320;9.456;2023-05-22T02:19:26;99109.75;;;16.96;77.74
70982;BME280;58640;51.320;9.456;2023-05-22T02:21:51;99111.84;;;16.94;77.63
70982;BME280;58640;51.320;9.456;2023-05-22T02:24:17;99105.06;;;17.03;77.64
70982;BME280;58640;51.320;9.456;2023-05-22T02:26:42;99109.19;;;16.87;78.59
70982;BME280;58640;51.320;9.456;2023-05-22T02:29:08;99112.66;;;16.76;79.00
70982;BME280;58640;51.320;9.456;2023-05-22T02:31:33;99108.06;;;16.77;79.08
70982;BME280;58640;51.320;9.456;2023-05-22T02:33:59;99109.78;;;16.71;79.20
70982;BME280;58640;51.320;9.456;2023-05-22T02:36:24;99101.06;;;16.63;79.54
70982;BME280;58640;51.320;9.456;2023-05-22T02:38:50;99100.09;;;16.57;80.48
70982;BME280;58640;51.320;9.456;2023-05-22T02:41:17;99109.53;;;16.73;79.42
70982;BME280;58640;51.320;9.456;2023-05-22T02:43:42;99104.78;;;16.68;79.15
70982;BME280;58640;51.320;9.456;2023-05-22T02:46:07;99102.91;;;16.69;78.99
70982;BME280;58640;51.320;9.456;2023-05-22T02:48:33;99102.97;;;16.62;79.31
70982;BME280;58640;51.320;9.456;2023-05-22T02:50:58;99098.78;;;16.60;79.30
70982;BME280;58640;51.320;9.456;2023-05-22T02:53:23;99101.97;;;16.57;79.66
70982;BME280;58640;51.320;9.456;2023-05-22T02:55:49;99088.44;;;16.50;80.34
70982;BME280;58640;51.320;9.456;2023-05-22T02:58:14;99094.88;;;16.56;79.98
70982;BME280;58640;51.320;9.456;2023-05-22T03:00:40;99099.06;;;16.52;79.91
70982;BME280;58640;51.320;9.456;2023-05-22T03:03:05;99098.09;;;16.46;80.60
70982;BME280;58640;51.320;9.456;2023-05-22T03:05:31;99102.47;;;16.41;81.42
70982;BME280;58640;51.320;9.456;2023-05-22T03:07:57;99092.59;;;16.53;80.16
70982;BME280;58640;51.320;9.456;2023-05-22T03:10:23;99098.03;;;16.53;79.93
70982;BME280;58640;51.320;9.456;2023-05-22T03:12:49;99090.94;;;16.52;79.89
70982;BME280;58640;51.320;9.456;2023-05-22T03:15:16;99093.88;;;16.44;80.51
70982;BME280;58640;51.320;9.456;2023-05-22T03:17:42;99091.31;;;16.31;81.23
70982;BME280;58640;51.320;9.456;2023-05-22T03:20:07;99083.69;;;16.39;80.64
70982;BME280;58640;51.320;9.456;2023-05-22T03:22:33;99085.16;;;16.42;80.66
70982;BME280;58640;51.320;9.456;2023-05-22T03:24:58;99087.88;;;16.42;80.65
70982;BME280;58640;51.320;9.456;2023-05-22T03:27:24;99083.91;;;16.38;80.92
70982;BME280;58640;51.320;9.456;2023-05-22T03:29:49;99085.44;;;16.34;81.07
70982;BME280;58640;51.320;9.456;2023-05-22T03:32:15;99090.63;;;16.35;81.15
70982;BME280;58640;51.320;9.456;2023-05-22T03:34:41;99084.81;;;16.32;81.38
70982;BME280;58640;51.320;9.456;2023-05-22T03:37:07;99086.91;;;16.30;81.39
70982;BME280;58640;51.320;9.456;2023-05-22T03:39:33;99089.41;;;16.31;81.80
70982;BME280;58640;51.320;9.456;2023-05-22T03:41:59;99081.47;;;16.30;81.85
70982;BME280;58640;51.320;9.456;2023-05-22T03:44:25;99082.94;;;16.32;81.70
70982;BME280;58640;51.320;9.456;2023-05-22T03:46:50;99084.59;;;16.33;81.25
70982;BME280;58640;51.320;9.456;2023-05-22T03:49:16;99086.41;;;16.39;81.18
70982;BME280;58640;51.320;9.456;2023-05-22T03:51:41;99084.75;;;16.45;81.08
70982;BME280;58640;51.320;9.456;2023-05-22T03:54:06;99082.63;;;16.47;81.05
70982;BME280;58640;51.320;9.456;2023-05-22T03:56:33;99081.59;;;16.48;80.82
70982;BME280;58640;51.320;9.456;2023-05-22T03:58:58;99082.19;;;16.50;80.98
70982;BME280;58640;51.320;9.456;2023-05-22T04:01:23;99083.63;;;16.52;81.07
70982;BME280;58640;51.320;9.456;2023-05-22T04:03:49;99084.19;;;16.61;80.51
70982;BME280;58640;51.320;9.456;2023-05-22T04:06:14;99078.97;;;16.59;80.70
70982;BME280;58640;51.320;9.456;2023-05-22T04:08:40;99085.31;;;16.47;81.52
70982;BME280;58640;51.320;9.456;2023-05-22T04:11:05;99086.44;;;16.64;80.67
70982;BME280;58640;51.320;9.456;2023-05-22T04:13:30;99090.19;;;16.63;80.59
70982;BME280;58640;51.320;9.456;2023-05-22T04:15:57;99083.44;;;16.72;80.35
70982;BME280;58640;51.320;9.456;2023-05-22T04:18:22;99086.63;;;16.87;79.83
70982;BME280;58640;51.320;9.456;2023-05-22T04:20:47;99096.16;;;16.96;79.31
70982;BME280;58640;51.320;9.456;2023-05-22T04:23:15;99096.97;;;16.96;79.14
70982;BME280;58640;51.320;9.456;2023-05-22T04:25:41;99100.84;;;17.07;78.76
70982;BME280;58640;51.320;9.456;2023-05-22T04:28:07;99097.06;;;17.08;78.98
70982;BME280;58640;51.320;9.456;2023-05-22T04:30:33;99102.06;;;17.11;78.71
70982;BME280;58640;51.320;9.456;2023-05-22T04:32:59;99091.03;;;17.24;78.20
70982;BME280;58640;51.320;9.456;2023-05-22T04:35:25;99102.53;;;17.26;77.94
70982;BME280;58640;51.320;9.456;2023-05-22T04:37:50;99108.69;;;17.33;77.83
70982;BME280;58640;51.320;9.456;2023-05-22T04:40:15;99108.28;;;17.54;76.90
70982;BME280;58640;51.320;9.456;2023-05-22T04:42:42;99106.59;;;17.71;76.51
70982;BME280;58640;51.320;9.456;2023-05-22T04:45:08;99098.81;;;17.75;76.63
70982;BME280;58640;51.320;9.456;2023-05-22T04:47:34;99109.88;;;17.91;75.61
70982;BME280;58640;51.320;9.456;2023-05-22T04:50:02;99111.81;;;17.73;76.27
70982;BME280;58640;51.320;9.456;2023-05-22T04:52:28;99113.56;;;17.97;75.12
70982;BME280;58640;51.320;9.456;2023-05-22T04:54:53;99109.09;;;18.02;75.47
70982;BME280;58640;51.320;9.456;2023-05-22T04:57:19;99100.69;;;18.04;75.16
70982;BME280;58640;51.320;9.456;2023-05-22T04:59:45;99105.84;;;18.23;74.07
70982;BME280;58640;51.320;9.456;2023-05-22T05:02:12;99104.53;;;18.26;74.51
70982;BME280;58640;51.320;9.456;2023-05-22T05:04:37;99111.38;;;18.46;73.69
70982;BME280;58640;51.320;9.456;2023-05-22T05:07:03;99111.44;;;18.81;72.25
70982;BME280;58640;51.320;9.456;2023-05-22T05:09:29;99106.94;;;18.98;71.67
70982;BME280;58640;51.320;9.456;2023-05-22T05:11:54;99106.56;;;19.18;70.65
70982;BME280;58640;51.320;9.456;2023-05-22T05:14:19;99107.03;;;19.15;71.04
70982;BME280;58640;51.320;9.456;2023-05-22T05:16:45;99110.72;;;19.43;69.51
70982;BME280;58640;51.320;9.456;2023-05-22T05:19:11;99107.84;;;19.27;70.51
70982;BME280;58640;51.320;9.456;2023-05-22T05:21:37;99105.50;;;19.42;70.03
70982;BME280;58640;51.320;9.456;2023-05-22T05:24:02;99106.78;;;19.51;69.03
70982;BME280;58640;51.320;9.456;2023-05-22T05:26:28;99116.13;;;19.55;69.09
70982;BME280;58640;51.320;9.456;2023-05-22T05:28:53;99112.34;;;19.56;68.73
70982;BME280;58640;51.320;9.456;2023-05-22T05:31:20;99110.31;;;19.91;67.98
70982;BME280;58640;51.320;9.456;2023-05-22T05:33:46;99110.84;;;19.76;68.66
70982;BME280;58640;51.320;9.456;2023-05-22T05:36:13;99109.00;;;19.93;67.70
70982;BME280;58640;51.320;9.456;2023-05-22T05:38:38;99117.22;;;20.21;66.37
70982;BME280;58640;51.320;9.456;2023-05-22T05:41:03;99105.66;;;20.48;65.51
70982;BME280;58640;51.320;9.456;2023-05-22T05:43:29;99119.44;;;20.69;64.51
70982;BME280;58640;51.320;9.456;2023-05-22T05:45:54;99117.19;;;20.83;63.70
70982;BME280;58640;51.320;9.456;2023-05-22T05:48:20;99124.88;;;21.57;61.84
70982;BME280;58640;51.320;9.456;2023-05-22T05:50:45;99119.22;;;21.85;60.56
70982;BME280;58640;51.320;9.456;2023-05-22T05:53:11;99128.75;;;22.04;59.15
70982;BME280;58640;51.320;9.456;2023-05-22T05:55:36;99127.25;;;22.40;57.81
70982;BME280;58640;51.320;9.456;2023-05-22T05:58:02;99132.25;;;22.74;56.38
70982;BME280;58640;51.320;9.456;2023-05-22T06:00:27;99123.97;;;22.69;56.41
70982;BME280;58640;51.320;9.456;2023-05-22T06:02:52;99130.66;;;23.57;54.68
70982;BME280;58640;51.320;9.456;2023-05-22T06:05:18;99129.38;;;25.36;48.98
70982;BME280;58640;51.320;9.456;2023-05-22T06:07:44;99130.03;;;28.36;41.31
70982;BME280;58640;51.320;9.456;2023-05-22T06:10:10;99128.53;;;28.81;39.48
70982;BME280;58640;51.320;9.456;2023-05-22T06:12:36;99136.81;;;30.04;37.35
70982;BME280;58640;51.320;9.456;2023-05-22T06:15:03;99133.84;;;30.00;36.63
70982;BME280;58640;51.320;9.456;2023-05-22T06:17:29;99135.63;;;28.87;38.81
70982;BME280;58640;51.320;9.456;2023-05-22T06:19:55;99139.88;;;27.29;42.24
70982;BME280;58640;51.320;9.456;2023-05-22T06:22:20;99137.19;;;28.18;40.50
70982;BME280;58640;51.320;9.456;2023-05-22T06:24:49;99139.63;;;29.45;38.02
70982;BME280;58640;51.320;9.456;2023-05-22T06:27:15;99138.19;;;30.91;35.36
70982;BME280;58640;51.320;9.456;2023-05-22T06:29:40;99141.56;;;32.41;32.42
70982;BME280;58640;51.320;9.456;2023-05-22T06:32:06;99141.66;;;33.64;30.64
70982;BME280;58640;51.320;9.456;2023-05-22T06:34:31;99137.53;;;33.70;30.10
70982;BME280;58640;51.320;9.456;2023-05-22T06:36:57;99140.91;;;33.47;29.66
70982;BME280;58640;51.320;9.456;2023-05-22T06:39:22;99139.00;;;32.79;30.79
70982;BME280;58640;51.320;9.456;2023-05-22T06:41:47;99130.59;;;32.88;30.51
70982;BME280;58640;51.320;9.456;2023-05-22T06:44:13;99135.94;;;32.33;31.60
70982;BME280;58640;51.320;9.456;2023-05-22T06:46:38;99130.34;;;31.15;33.58
70982;BME280;58640;51.320;9.456;2023-05-22T06:49:04;99130.25;;;30.98;33.99
70982;BME280;58640;51.320;9.456;2023-05-22T06:51:29;99128.50;;;30.67;34.86
70982;BME280;58640;51.320;9.456;2023-05-22T06:53:55;99134.81;;;31.47;34.11
70982;BME280;58640;51.320;9.456;2023-05-22T06:56:21;99123.03;;;30.97;34.76
70982;BME280;58640;51.320;9.456;2023-05-22T06:58:46;99136.59;;;31.43;33.06
70982;BME280;58640;51.320;9.456;2023-05-22T07:01:12;99129.03;;;30.55;34.34
70982;BME280;58640;51.320;9.456;2023-05-22T07:03:38;99130.09;;;30.81;34.49
70982;BME280;58640;51.320;9.456;2023-05-22T07:06:04;99132.31;;;30.93;34.51
70982;BME280;58640;51.320;9.456;2023-05-22T07:08:30;99138.72;;;31.77;33.66
70982;BME280;58640;51.320;9.456;2023-05-22T07:10:55;99130.06;;;33.45;30.18
70982;BME280;58640;51.320;9.456;2023-05-22T07:13:20;99140.81;;;35.99;26.48
70982;BME280;58640;51.320;9.456;2023-05-22T07:15:46;99144.78;;;35.98;27.26
70982;BME280;58640;51.320;9.456;2023-05-22T07:18:11;99144.88;;;36.13;25.64
70982;BME280;58640;51.320;9.456;2023-05-22T07:20:37;99141.09;;;36.69;25.99
70982;BME280;58640;51.320;9.456;2023-05-22T07:23:02;99153.34;;;37.72;23.00
70982;BME280;58640;51.320;9.456;2023-05-22T07:25:28;99146.44;;;36.87;25.37
70982;BME280;58640;51.320;9.456;2023-05-22T07:27:53;99149.00;;;38.56;23.28
70982;BME280;58640;51.320;9.456;2023-05-22T07:30:20;99148.16;;;39.05;21.70
70982;BME280;58640;51.320;9.456;2023-05-22T07:32:45;99142.69;;;38.78;21.98
70982;BME280;58640;51.320;9.456;2023-05-22T07:35:11;99144.41;;;38.48;21.53
70982;BME280;58640;51.320;9.456;2023-05-22T07:37:36;99150.91;;;36.88;23.43
70982;BME280;58640;51.320;9.456;2023-05-22T07:40:03;99150.59;;;35.93;25.32
70982;BME280;58640;51.320;9.456;2023-05-22T07:42:32;99146.38;;;35.09;26.01
70982;BME280;58640;51.320;9.456;2023-05-22T07:44:57;99144.56;;;36.03;24.91
70982;BME280;58640;51.320;9.456;2023-05-22T07:47:23;99149.22;;;36.99;24.56
70982;BME280;58640;51.320;9.456;2023-05-22T07:49:48;99143.88;;;38.58;22.10
70982;BME280;58640;51.320;9.456;2023-05-22T07:52:13;99149.78;;;38.37;22.48
70982;BME280;58640;51.320;9.456;2023-05-22T07:54:39;99144.53;;;37.89;22.53
70982;BME280;58640;51.320;9.456;2023-05-22T07:57:04;99142.50;;;35.34;26.38
70982;BME280;58640;51.320;9.456;2023-05-22T07:59:32;99137.09;;;33.97;27.18
70982;BME280;58640;51.320;9.456;2023-05-22T08:01:57;99137.28;;;33.38;30.03
70982;BME280;58640;51.320;9.456;2023-05-22T08:04:23;99134.88;;;32.77;31.14
70982;BME280;58640;51.320;9.456;2023-05-22T08:06:48;99135.41;;;33.67;29.90
70982;BME280;58640;51.320;9.456;2023-05-22T08:09:13;99137.66;;;33.19;28.85
70982;BME280;58640;51.320;9.456;2023-05-22T08:11:39;99133.97;;;33.53;28.72
70982;BME280;58640;51.320;9.456;2023-05-22T08:14:06;99140.28;;;32.64;29.78
70982;BME280;58640;51.320;9.456;2023-05-22T08:16:32;99133.38;;;30.83;31.68
70982;BME280;58640;51.320;9.456;2023-05-22T08:18:57;99129.56;;;30.57;33.02
70982;BME280;58640;51.320;9.456;2023-05-22T08:21:23;99139.91;;;29.75;33.31
70982;BME280;58640;51.320;9.456;2023-05-22T08:23:48;99130.00;;;30.51;32.47
70982;BME280;58640;51.320;9.456;2023-05-22T08:26:14;99133.69;;;30.82;32.40
70982;BME280;58640;51.320;9.456;2023-05-22T08:28:39;99127.66;;;28.67;35.61
70982;BME280;58640;51.320;9.456;2023-05-22T08:31:11;99131.78;;;27.85;37.12
70982;BME280;58640;51.320;9.456;2023-05-22T08:33:36;99131.34;;;28.01;37.68
70982;BME280;58640;51.320;9.456;2023-05-22T08:36:02;99124.25;;;28.32;36.53
70982;BME280;58640;51.320;9.456;2023-05-22T08:38:27;99124.84;;;29.36;34.62
70982;BME280;58640;51.320;9.456;2023-05-22T08:40:53;99118.34;;;29.86;34.12
70982;BME280;58640;51.320;9.456;2023-05-22T08:43:22;99125.03;;;30.83;32.74
70982;BME280;58640;51.320;9.456;2023-05-22T08:45:54;99121.66;;;30.51;33.15
70982;BME280;58640;51.320;9.456;2023-05-22T08:48:22;99111.94;;;30.40;32.20
70982;BME280;58640;51.320;9.456;2023-05-22T08:50:52;99115.91;;;30.83;32.23
70982;BME280;58640;51.320;9.456;2023-05-22T08:53:21;99107.44;;;30.88;32.60
70982;BME280;58640;51.320;9.456;2023-05-22T08:55:48;99114.41;;;32.47;30.24
70982;BME280;58640;51.320;9.456;2023-05-22T08:58:14;99102.59;;;32.67;31.24
70982;BME280;58640;51.320;9.456;2023-05-22T09:00:41;99102.56;;;33.18;29.79
70982;BME280;58640;51.320;9.456;2023-05-22T09:03:06;99108.66;;;33.12;28.80
70982;BME280;58640;51.320;9.456;2023-05-22T09:05:34;99103.63;;;33.60;28.62
70982;BME280;58640;51.320;9.456;2023-05-22T09:08:01;99103.94;;;34.25;27.79
70982;BME280;58640;51.320;9.456;2023-05-22T09:10:28;99107.38;;;34.01;27.60
70982;BME280;58640;51.320;9.456;2023-05-22T09:13:03;99115.59;;;33.89;27.45
70982;BME280;58640;51.320;9.456;2023-05-22T09:15:33;99107.41;;;33.55;28.46
70982;BME280;58640;51.320;9.456;2023-05-22T09:17:59;99107.91;;;32.12;31.68
70982;BME280;58640;51.320;9.456;2023-05-22T09:20:25;99099.59;;;31.12;31.04
70982;BME280;58640;51.320;9.456;2023-05-22T09:22:50;99107.03;;;31.86;30.19
70982;BME280;58640;51.320;9.456;2023-05-22T09:25:20;99097.44;;;32.09;31.46
70982;BME280;58640;51.320;9.456;2023-05-22T09:27:48;99099.31;;;32.48;31.30
70982;BME280;58640;51.320;9.456;2023-05-22T09:30:17;99104.19;;;32.34;30.55
70982;BME280;58640;51.320;9.456;2023-05-22T09:32:44;99101.13;;;32.44;31.08
70982;BME280;58640;51.320;9.456;2023-05-22T09:35:11;99096.97;;;32.33;30.52
70982;BME280;58640;51.320;9.456;2023-05-22T09:37:36;99089.75;;;33.43;28.76
70982;BME280;58640;51.320;9.456;2023-05-22T09:40:12;99084.41;;;32.95;29.65
70982;BME280;58640;51.320;9.456;2023-05-22T09:42:38;99080.06;;;33.40;29.46
70982;BME280;58640;51.320;9.456;2023-05-22T09:45:08;99083.44;;;33.00;30.66
70982;BME280;58640;51.320;9.456;2023-05-22T09:47:34;99085.22;;;32.70;30.40
70982;BME280;58640;51.320;9.456;2023-05-22T09:50:03;99083.19;;;32.02;28.89
70982;BME280;58640;51.320;9.456;2023-05-22T09:52:34;99084.13;;;31.50;30.63
70982;BME280;58640;51.320;9.456;2023-05-22T09:55:06;99081.19;;;31.55;30.91
70982;BME280;58640;51.320;9.456;2023-05-22T09:57:42;99088.84;;;31.19;33.30
70982;BME280;58640;51.320;9.456;2023-05-22T10:00:10;99082.47;;;30.52;33.56
70982;BME280;58640;51.320;9.456;2023-05-22T10:02:41;99077.91;;;30.56;34.71
70982;BME280;58640;51.320;9.456;2023-05-22T10:05:08;99084.41;;;30.52;34.31
70982;BME280;58640;51.320;9.456;2023-05-22T10:07:36;99077.72;;;30.53;35.63
70982;BME280;58640;51.320;9.456;2023-05-22T10:10:10;99080.25;;;31.07;33.14
70982;BME280;58640;51.320;9.456;2023-05-22T10:12:56;99080.03;;;31.87;31.59
70982;BME280;58640;51.320;9.456;2023-05-22T10:15:25;99066.09;;;30.86;31.95
70982;BME280;58640;51.320;9.456;2023-05-22T10:17:51;99067.84;;;32.47;30.11
70982;BME280;58640;51.320;9.456;2023-05-22T10:20:17;99072.41;;;33.66;27.86
70982;BME280;58640;51.320;9.456;2023-05-22T10:22:45;99069.94;;;33.19;29.50
70982;BME280;58640;51.320;9.456;2023-05-22T10:25:11;99073.50;;;32.00;29.72
70982;BME280;58640;51.320;9.456;2023-05-22T10:27:38;99069.56;;;33.75;27.39
70982;BME280;58640;51.320;9.456;2023-05-22T10:35:22;99058.63;;;34.49;27.12
70982;BME280;58640;51.320;9.456;2023-05-22T10:37:52;99057.94;;;33.73;28.59
70982;BME280;58640;51.320;9.456;2023-05-22T10:40:28;99057.31;;;34.67;25.76
70982;BME280;58640;51.320;9.456;2023-05-22T10:43:01;99052.25;;;34.81;25.14
70982;BME280;58640;51.320;9.456;2023-05-22T10:45:28;99049.03;;;34.08;26.15
70982;BME280;58640;51.320;9.456;2023-05-22T10:48:10;99051.66;;;33.38;26.72
70982;BME280;58640;51.320;9.456;2023-05-22T10:50:37;99042.44;;;33.00;26.74
70982;BME280;58640;51.320;9.456;2023-05-22T10:55:50;99038.78;;;34.21;26.67
70982;BME280;58640;51.320;9.456;2023-05-22T10:58:16;99040.63;;;34.58;25.93
70982;BME280;58640;51.320;9.456;2023-05-22T11:00:43;99042.16;;;34.68;26.37
70982;BME280;58640;51.320;9.456;2023-05-22T11:03:08;99032.69;;;33.98;26.22
70982;BME280;58640;51.320;9.456;2023-05-22T11:05:35;99039.47;;;33.60;26.94
70982;BME280;58640;51.320;9.456;2023-05-22T11:10:51;99026.47;;;33.18;26.83
70982;BME280;58640;51.320;9.456;2023-05-22T11:13:17;99036.41;;;32.72;27.74
70982;BME280;58640;51.320;9.456;2023-05-22T11:15:45;99028.75;;;32.44;27.61
70982;BME280;58640;51.320;9.456;2023-05-22T11:18:11;99019.34;;;32.06;28.92
70982;BME280;58640;51.320;9.456;2023-05-22T11:20:38;99021.97;;;32.11;28.76
70982;BME280;58640;51.320;9.456;2023-05-22T11:23:05;99019.59;;;31.31;30.20
70982;BME280;58640;51.320;9.456;2023-05-22T11:25:35;99021.06;;;31.28;30.92
70982;BME280;58640;51.320;9.456;2023-05-22T11:28:05;99014.13;;;30.87;31.70
70982;BME280;58640;51.320;9.456;2023-05-22T11:30:32;99011.00;;;29.86;34.85
70982;BME280;58640;51.320;9.456;2023-05-22T11:32:59;99007.13;;;30.10;33.46
70982;BME280;58640;51.320;9.456;2023-05-22T11:35:25;99005.56;;;29.95;34.34
70982;BME280;58640;51.320;9.456;2023-05-22T11:37:52;98993.25;;;29.33;34.68
70982;BME280;58640;51.320;9.456;2023-05-22T11:40:20;98993.56;;;29.32;34.92
70982;BME280;58640;51.320;9.456;2023-05-22T11:42:45;98994.75;;;28.99;35.74
70982;BME280;58640;51.320;9.456;2023-05-22T11:45:11;98996.28;;;27.90;36.70
70982;BME280;58640;51.320;9.456;2023-05-22T11:47:37;98992.72;;;28.08;36.05
70982;BME280;58640;51.320;9.456;2023-05-22T11:50:03;98989.25;;;27.60;37.05
70982;BME280;58640;51.320;9.456;2023-05-22T11:52:31;98979.50;;;27.81;36.58
70982;BME280;58640;51.320;9.456;2023-05-22T11:54:57;98983.41;;;28.36;35.97
70982;BME280;58640;51.320;9.456;2023-05-22T11:57:23;98980.41;;;28.32;39.03
70982;BME280;58640;51.320;9.456;2023-05-22T11:59:48;98977.00;;;28.22;38.59
70982;BME280;58640;51.320;9.456;2023-05-22T12:02:15;98969.97;;;28.48;38.79
70982;BME280;58640;51.320;9.456;2023-05-22T12:04:41;98972.22;;;28.59;38.40
70982;BME280;58640;51.320;9.456;2023-05-22T12:07:07;98966.47;;;28.05;37.64
70982;BME280;58640;51.320;9.456;2023-05-22T12:09:32;98964.91;;;27.81;37.25
70982;BME280;58640;51.320;9.456;2023-05-22T12:11:58;98967.56;;;27.67;37.24
70982;BME280;58640;51.320;9.456;2023-05-22T12:14:28;98964.19;;;27.70;37.85
70982;BME280;58640;51.320;9.456;2023-05-22T12:16:54;98964.00;;;27.67;37.97
70982;BME280;58640;51.320;9.456;2023-05-22T12:19:20;98954.44;;;27.78;37.83
70982;BME280;58640;51.320;9.456;2023-05-22T12:21:48;98955.66;;;27.90;37.39
70982;BME280;58640;51.320;9.456;2023-05-22T12:24:13;98958.38;;;27.53;37.57
70982;BME280;58640;51.320;9.456;2023-05-22T12:26:39;98952.81;;;27.11;38.37
70982;BME280;58640;51.320;9.456;2023-05-22T12:29:05;98950.50;;;27.18;38.70
70982;BME280;58640;51.320;9.456;2023-05-22T12:31:34;98948.22;;;27.49;38.17
70982;BME280;58640;51.320;9.456;2023-05-22T12:34:05;98947.63;;;27.52;38.05
70982;BME280;58640;51.320;9.456;2023-05-22T12:36:33;98950.66;;;27.92;37.20
70982;BME280;58640;51.320;9.456;2023-05-22T12:38:59;98950.72;;;28.06;36.16
70982;BME280;58640;51.320;9.456;2023-05-22T12:41:24;98947.91;;;27.69;36.55
70982;BME280;58640;51.320;9.456;2023-05-22T12:43:50;98942.41;;;27.69;36.36
70982;BME280;58640;51.320;9.456;2023-05-22T12:46:15;98942.38;;;27.92;35.78
70982;BME280;58640;51.320;9.456;2023-05-22T12:48:41;98936.66;;;28.34;35.93
70982;BME280;58640;51.320;9.456;2023-05-22T12:51:06;98941.97;;;28.49;36.25
70982;BME280;58640;51.320;9.456;2023-05-22T12:53:33;98936.97;;;28.33;36.85
70982;BME280;58640;51.320;9.456;2023-05-22T12:55:59;98943.00;;;28.53;34.91
70982;BME280;58640;51.320;9.456;2023-05-22T12:58:24;98936.56;;;28.26;35.48
70982;BME280;58640;51.320;9.456;2023-05-22T13:00:49;98935.84;;;28.34;36.13
70982;BME280;58640;51.320;9.456;2023-05-22T13:03:15;98933.50;;;28.09;36.84
70982;BME280;58640;51.320;9.456;2023-05-22T13:05:40;98942.09;;;27.70;37.81
70982;BME280;58640;51.320;9.456;2023-05-22T13:08:05;98947.84;;;27.74;37.06
70982;BME280;58640;51.320;9.456;2023-05-22T13:10:31;98942.19;;;27.84;37.00
70982;BME280;58640;51.320;9.456;2023-05-22T13:12:56;98945.16;;;27.87;37.08
70982;BME280;58640;51.320;9.456;2023-05-22T13:15:22;98944.69;;;27.19;36.97
70982;BME280;58640;51.320;9.456;2023-05-22T13:17:47;98945.34;;;27.35;37.01
70982;BME280;58640;51.320;9.456;2023-05-22T13:20:12;98943.47;;;27.31;37.13